Tiempo atmosférico en la estación meteorológica de Vigo, Pontevedra (120 m.)



Fecha
DESCASC
Temp. máxima en grados centígrados (hora)
DESCASC
Temp. mínima en grados centígrados (hora)
DESCASC
Temp. media en grados centígrados
DESCASC
Racha de viento máxima en m/sg (hora)
DESCASC
Velocidad máxima media en intervalos de 10 minutos(hora)
DESCASC
Precipitaciones diarias en mm
DESCASC
Precipitaciones de 00:00 a 06:00 en mm
DESCASC
Precipitaciones de 06:00 a 12:00 en mm
DESCASC
Precipitaciones de 12:00 a 18:00 en mm
DESCASC
Precipitaciones de 18:00 a 24:00 en mm
DESCASC
08-12-2019 13.5 (14:20) 8.3 (23:59) 10.9 3.61 (16:20) 1.67 (21:00) -- -- 10 1.4 0
07-12-2019 13.3 (16:10) 7.9 (05:10) 10.6 4.44 (13:10) 2.5 (12:20) -- -- -- -- --
06-12-2019 14.1 (14:50) 8.4 (07:40) 11.3 3.33 (16:30) 1.67 (13:30) -- -- -- -- --
05-12-2019 16.3 (15:20) 6.5 (00:00) 11.4 5.83 (05:20) 2.22 (05:00) -- -- -- -- --
04-12-2019 12.8 (15:10) 4.2 (07:00) 8.5 3.89 (07:50) 1.94 (09:40) -- -- -- -- --
03-12-2019 12.9 (13:50) 5.3 (00:00) 9.1 6.39 (05:40) 2.78 (05:40) -- -- -- -- --
02-12-2019 14.6 (14:10) 8.1 (00:00) 11.4 11.39 (15:00) 5.28 (00:50) -- -- -- -- --
01-12-2019 15 (15:10) 9.7 (00:00) 12.3 11.67 (18:40) 4.17 (00:50) -- -- -- -- --
30-11-2019 15.8 (02:10) 11.3 (00:00) 13.6 10.83 (04:10) 4.72 (03:00) -- -- -- -- --
29-11-2019 16.2 (15:10) 11.3 (00:00) 13.8 7.22 (23:40) 3.61 (23:10) -- -- -- -- --
28-11-2019 15.4 (16:50) 12.2 (07:30) 13.8 12.78 (17:10) 5.56 (15:00) 15.4 6.6 3.2 5.6 0
27-11-2019 14.2 (15:10) 12.3 (00:00) 13.3 9.17 (00:30) 4.44 (00:20) 5.8 2 2.2 1.2 0.4
26-11-2019 16.8 (12:40) 12.6 (00:00) 14.7 13.61 (16:40) 7.22 (16:40) 10.8 4.4 0 6 0.4
25-11-2019 16.6 (14:50) 12.7 (08:50) 14.7 9.72 (23:20) 4.72 (23:30) 1.4 1 0.4 0 0
24-11-2019 15.4 (20:30) 9.2 (00:00) 12.3 11.67 (17:50) 6.11 (17:10) 5.8 0 0 2.2 3.6
23-11-2019 13.8 (15:40) 9.5 (00:00) 11.7 7.78 (01:00) 3.33 (01:00) 3.4 1 1.2 1 0.2
22-11-2019 14.7 (08:40) 9.3 (00:00) 12 15 (16:30) 6.94 (05:50) 24.8 5 10.4 5.4 4
21-11-2019 14.5 (13:00) 7.7 (00:00) 11.1 7.5 (23:40) 3.33 (23:40) 15.2 11.6 2.6 1 0
20-11-2019 10.9 (12:20) 7.5 (05:40) 9.2 6.67 (12:40) 3.33 (12:40) 4 0 0 3.6 0.4
19-11-2019 10.4 (19:50) 7.6 (00:00) 9 5.83 (20:00) 2.22 (12:20) 6.2 0 1.2 3.6 1.4
18-11-2019 14.3 (14:50) 6.8 (00:00) 10.6 4.17 (01:30) 2.22 (01:30) 0 0 0 0 0
17-11-2019 13 (14:10) 9.5 (00:00) 11.3 7.78 (16:20) 2.78 (16:10) 9 1 8 0 0
16-11-2019 12.3 (13:10) 4.7 (00:00) 8.5 5 (16:20) 1.94 (21:10) 0 0 0 0 0
15-11-2019 11.2 (14:10) 6 (00:00) 8.6 13.61 (01:10) 6.67 (15:40) 0.4 0 0 0.4 0
14-11-2019 12.3 (12:30) 6.7 (00:00) 9.5 15.83 (12:10) 8.33 (12:50) 14.6 3.4 7.2 4 0
13-11-2019 15.9 (14:20) 11 (00:00) 13.4 10.83 (21:50) 4.17 (23:50) 6.2 1.8 0 0 4.4
12-11-2019 15.2 (23:59) 8.9 (00:00) 12 10.56 (21:30) 4.44 (18:10) 37.8 0 1.2 9.2 27.4
11-11-2019 14.8 (15:10) 9.5 (23:59) 12.2 9.17 (10:40) 5.28 (10:40) 1 0.8 0.2 0 0

Gráficas

Temp. máximas Temp. mínimas Temp. medias Precipitaciones Rachas de viento máximas Velocidades máximas media en intervalos de 10 minutos

Datos horarios

Fecha y hora oficial Temperatura (ºC) Velocidad del viento (km/h) Dirección del viento Racha (km/h) Dirección de racha Precipitación (mm) Presión (hPa) Tendencia (hPa) Humedad (%)
2019-12-10 23:00:00 11.9 9 Sur 24 Sur 0 -- -- 94
2019-12-10 22:00:00 11.9 5 Sur 25 Sur 0 -- -- 91
2019-12-10 21:00:00 11.6 3 Sur 22 Sur 0 -- -- 90
2019-12-10 20:00:00 11.5 5 Sur 16 Sur 0.2 -- -- 91
2019-12-10 19:00:00 11.2 4 Sur 10 Sur 0.2 -- -- 89
2019-12-10 18:00:00 11.5 0 Calma 6 Norte 0 -- -- 79
2019-12-10 17:00:00 12 3 Nordeste 10 Norte 0 -- -- 78
2019-12-10 16:00:00 12.5 0 Calma 6 Este 0 -- -- 72
2019-12-10 15:00:00 12.1 4 Norte 9 Norte 0 -- -- 76
2019-12-10 14:00:00 12.6 3 Norte 8 Norte 0 -- -- 70
2019-12-10 13:00:00 12.6 3 Nordeste 9 Este 0 -- -- 67
2019-12-10 12:00:00 10.9 3 Nordeste 8 Sudeste -- -- -- 77
2019-12-10 11:00:00 -- 4 Sudeste 15 Este 0 -- -- --
2019-12-10 10:00:00 7.9 5 Este 13 Este 0 -- -- 82
2019-12-10 09:00:00 7 4 Sudeste 8 Sudeste 0 -- -- 88
2019-12-10 08:00:00 7.3 4 Sudeste 9 Sudeste 0 -- -- 87
2019-12-10 07:00:00 7.4 0 Calma 8 Nordeste 0 -- -- 87
2019-12-10 06:00:00 7.6 4 Este 7 Sudeste 0 -- -- 85
2019-12-10 05:00:00 7.8 3 Este 9 Este 0 -- -- 88
2019-12-10 04:00:00 8.4 5 Este 15 Este 0 -- -- 84
2019-12-10 03:00:00 8.4 4 Este 15 Este 0 -- -- 88
2019-12-10 02:00:00 8.2 5 Este 12 Este 0 -- -- 92
2019-12-10 01:00:00 8.5 3 Este 10 Sudeste 0 -- -- 92
2019-12-10 00:00:00 8.5 3 Nordeste 9 Este 0 -- -- 94
2019-12-09 23:00:00 8.4 2 Nordeste 4 Nordeste 0 -- -- 96
2019-12-09 22:00:00 8.9 3 Nordeste 6 Nordeste 0 -- -- 96
2019-12-09 21:00:00 8.7 3 Este 8 Este 0 -- -- 95
2019-12-09 20:00:00 9.3 0 Calma 5 Sudeste 0 -- -- 94
2019-12-09 19:00:00 10.3 3 Sur 6 Sur 0 -- -- 92
2019-12-09 18:00:00 11.6 0 Calma 7 Nordeste 0 -- -- 86
2019-12-09 17:00:00 12.5 4 Nordeste 12 Nordeste 0 -- -- 79
2019-12-09 16:00:00 12.7 4 Nordeste 9 Nordeste 0 -- -- 77
2019-12-09 15:00:00 12.7 3 Este 9 Nordeste 0 -- -- 77
2019-12-09 14:00:00 11.6 0 Calma 10 Este 0 -- -- 82
2019-12-09 13:00:00 11.5 3 Este 15 Este 0 -- -- 80
2019-12-09 12:00:00 10.8 5 Nordeste 12 Este 0 -- -- 85
2019-12-09 11:00:00 9.3 2 Sur 10 Sudeste 0 -- -- 88
2019-12-09 10:00:00 7.9 3 Este 9 Este 0 -- -- 92
2019-12-09 09:00:00 7.7 4 Nordeste 12 Este 0 -- -- 91
2019-12-09 08:00:00 7.8 3 Este 9 Este 0 -- -- 93
2019-12-09 07:00:00 8.1 5 Este 11 Sudeste 0 -- -- 93
2019-12-09 06:00:00 7.6 5 Este 11 Este 0 -- -- 96
2019-12-09 05:00:00 6.8 3 Sudeste 9 Este 0 -- -- 100
2019-12-09 04:00:00 6.8 0 Calma 5 Sudeste 0.2 -- -- 100
2019-12-09 03:00:00 7.1 3 Nordeste 5 Nordeste 0 -- -- 100
2019-12-09 02:00:00 7.4 2 Este 5 Este 0 -- -- 100
2019-12-09 01:00:00 7.9 0 Calma 7 Norte 0 -- -- 99
2019-12-09 00:00:00 8.3 2 Sudeste 5 Nordeste 0 -- -- 99
2019-12-08 23:00:00 8.9 0 Calma 6 Nordeste 0 -- -- 98
2019-12-08 22:00:00 9.9 4 Norte 10 Nordeste 0 -- -- 98
2019-12-08 21:00:00 10.7 6 Nordeste 11 Nordeste 0 -- -- 100
2019-12-08 20:00:00 11.5 2 Nordeste 9 Nordeste 0 -- -- 100
2019-12-08 19:00:00 12.3 3 Nordeste 9 Norte 0 -- -- 100
2019-12-08 18:00:00 12.9 0 Calma 5 Sudoeste 0 -- -- 100
2019-12-08 17:00:00 13 2 Sudoeste 13 Sudoeste 0.2 -- -- 100
2019-12-08 16:00:00 12.9 3 Sudoeste 9 Oeste 0 -- -- 100
2019-12-08 15:00:00 13.4 3 Norte 5 Norte 0.2 -- -- 100
2019-12-08 14:00:00 13.4 0 Calma 4 Norte 0.8 -- -- 100
2019-12-08 13:00:00 13.1 0 Calma 5 Este 0.2 -- -- 100
2019-12-08 12:00:00 12.9 0 Calma 5 Este 0.4 -- -- 100
2019-12-08 11:00:00 12.7 2 Sudeste 5 Este 1.6 -- -- 100
2019-12-08 10:00:00 12.4 3 Sudeste 8 Sudeste 4.6 -- -- 100
2019-12-08 09:00:00 12.3 2 Sur 7 Sudeste 1.4 -- -- 100
2019-12-08 08:00:00 12.2 3 Este 11 Sur 1.4 -- -- 100
2019-12-08 07:00:00 12.3 4 Sudeste 10 Sudeste 0.6 -- -- 99
2019-12-08 06:00:00 12.3 2 Sudeste 6 Este 0 -- -- 98
2019-12-08 05:00:00 12.5 0 Calma 7 Sur 0 -- -- 98
2019-12-08 04:00:00 12.6 2 Sur 8 Sur 0 -- -- 97
2019-12-08 03:00:00 12.5 4 Sur 9 Sudeste 0 -- -- 98
2019-12-08 02:00:00 12.3 2 Sur 7 Sudeste 0 -- -- 98
2019-12-08 01:00:00 12.4 3 Sur 9 Sudeste 0 -- -- 97
2019-12-08 00:00:00 12.2 0 Calma 5 Nordeste 0 -- -- 97
2019-12-07 23:00:00 12.1 0 Calma 5 Este 0 -- -- 98
2019-12-07 22:00:00 12.2 0 Calma 6 Este 0 -- -- 98
2019-12-07 21:00:00 12.2 0 Calma 4 Este 0 -- -- 97
2019-12-07 20:00:00 12.2 0 Calma 5 Sur 0 -- -- 95
2019-12-07 19:00:00 12.1 2 Sudeste 8 Este 0 -- -- 96
2019-12-07 18:00:00 12.1 2 Nordeste 5 Nordeste 0 -- -- 96
2019-12-07 17:00:00 12.7 0 Calma 6 Nordeste 0 -- -- 92
2019-12-07 16:00:00 13.2 3 Este 7 Este 0 -- -- 85
2019-12-07 15:00:00 12.8 4 Este 14 Este 0 -- -- 84
2019-12-07 14:00:00 13.1 5 Este 16 Este 0 -- -- 86
2019-12-07 13:00:00 12 5 Este 14 Este 0 -- -- 85
2019-12-07 12:00:00 11.2 5 Este 10 Este 0 -- -- 86
2019-12-07 11:00:00 10.3 2 Este 7 Este 0 -- -- 91
2019-12-07 10:00:00 9.5 3 Nordeste 8 Este 0 -- -- 91
2019-12-07 09:00:00 8.8 4 Este 8 Este 0 -- -- 93
2019-12-07 08:00:00 8.4 3 Nordeste 10 Este 0 -- -- 94
2019-12-07 07:00:00 8.4 4 Este 10 Este 0 -- -- 96
2019-12-07 06:00:00 8.1 2 Nordeste 7 Sudeste 0 -- -- 96
2019-12-07 05:00:00 8 4 Nordeste 10 Nordeste 0 -- -- 98
2019-12-07 04:00:00 8.2 2 Nordeste 7 Sudeste 0 -- -- 98
2019-12-07 03:00:00 8.1 3 Sudeste 9 Norte 0 -- -- 98
2019-12-07 02:00:00 8.5 2 Nordeste 7 Sudeste 0 -- -- 98
2019-12-07 01:00:00 8.4 4 Sudeste 8 Sudeste 0 -- -- 98
2019-12-07 00:00:00 8.9 2 Nordeste 6 Nordeste 0 -- -- 98
2019-12-06 23:00:00 8.9 0 Calma 6 Sur 0 -- -- 98
2019-12-06 22:00:00 9 3 Sur 12 Sudeste 0 -- -- 97
2019-12-06 21:00:00 9.1 3 Sur 8 Sudeste 0 -- -- 96
2019-12-06 20:00:00 9.5 0 Calma 7 Sur 0 -- -- 94
2019-12-06 19:00:00 10.1 2 Sur 8 Sur 0 -- -- 92
2019-12-06 18:00:00 11.1 3 Sudoeste 8 Sudoeste 0 -- -- 88
2019-12-06 17:00:00 12.2 4 Sudoeste 12 Oeste 0 -- -- 82
2019-12-06 16:00:00 13.3 3 Oeste 8 Oeste 0 -- -- 78
2019-12-06 15:00:00 14 4 Noroeste 7 Sudoeste 0 -- -- 73
2019-12-06 14:00:00 12.3 2 Norte 10 Norte 0 -- -- 77
2019-12-06 13:00:00 11.3 5 Norte 10 Norte 0 -- -- 81
2019-12-06 12:00:00 11.7 3 Sudeste 9 Sudeste 0 -- -- 84
2019-12-06 11:00:00 10.4 4 Sudeste 7 Sudeste 0 -- -- 85
2019-12-06 10:00:00 9 0 Calma 8 Este 0 -- -- 89
2019-12-06 09:00:00 8.5 3 Nordeste 9 Este 0 -- -- 91
2019-12-06 08:00:00 8.5 3 Este 8 Sudeste 0 -- -- 91
2019-12-06 07:00:00 9 0 Calma 4 Este 0 -- -- 89
2019-12-06 06:00:00 9.6 3 Nordeste 9 Este 0 -- -- 85
2019-12-06 05:00:00 9.7 4 Este 10 Este 0 -- -- 86
2019-12-06 04:00:00 9.6 4 Este 11 Este 0 -- -- 87
2019-12-06 03:00:00 9 4 Nordeste 10 Este 0 -- -- 89
2019-12-06 02:00:00 8.9 3 Este 9 Este 0 -- -- 90
2019-12-06 01:00:00 9.1 3 Nordeste 6 Nordeste 0 -- -- 89
2019-12-06 00:00:00 9.9 2 Nordeste 8 Sudeste 0 -- -- 86
2019-12-05 23:00:00 10.3 4 Este 10 Este 0 -- -- 84
2019-12-05 22:00:00 10.4 4 Este 9 Este 0 -- -- 84
2019-12-05 21:00:00 11 0 Calma 10 Nordeste 0 -- -- 83
2019-12-05 20:00:00 11.4 3 Este 12 Este 0 -- -- 81
2019-12-05 19:00:00 12.7 2 Nordeste 13 Nordeste 0 -- -- 78
2019-12-05 18:00:00 13.6 5 Nordeste 10 Nordeste 0 -- -- 73
2019-12-05 17:00:00 14.7 3 Este 8 Este 0 -- -- 68
2019-12-05 16:00:00 15.7 4 Nordeste 11 Este 0 -- -- 65
2019-12-05 15:00:00 16 7 Nordeste 16 Nordeste 0 -- -- 62
2019-12-05 14:00:00 14.6 3 Nordeste 8 Nordeste 0 -- -- 65
2019-12-05 13:00:00 13.4 3 Norte 6 Nordeste 0 -- -- 66
2019-12-05 12:00:00 12 3 Sudoeste 10 Sudoeste 0 -- -- 72
2019-12-05 11:00:00 10.4 0 Calma 9 Nordeste 0 -- -- 75
2019-12-05 10:00:00 9.4 3 Nordeste 16 Norte 0 -- -- 76
2019-12-05 09:00:00 8.7 6 Nordeste 18 Nordeste 0 -- -- 78
2019-12-05 08:00:00 8.2 5 Este 11 Este 0 -- -- 79
2019-12-05 07:00:00 8.4 7 Este 21 Nordeste 0 -- -- 78
2019-12-05 06:00:00 8 5 Este 21 Nordeste 0 -- -- 80
2019-12-05 05:00:00 7.7 8 Este 17 Este 0 -- -- 82
2019-12-05 04:00:00 7.7 3 Este 14 Este 0 -- -- 77
2019-12-05 03:00:00 7.4 6 Nordeste 16 Este 0 -- -- 75
2019-12-05 02:00:00 6.5 2 Este 8 Este 0 -- -- 75
2019-12-05 01:00:00 7.4 0 Calma 9 Nordeste 0 -- -- 68
2019-12-05 00:00:00 7.5 2 Nordeste 9 Nordeste 0 -- -- 68
2019-12-04 23:00:00 7.6 2 Nordeste 13 Este 0 -- -- 72
2019-12-04 22:00:00 8.1 5 Nordeste 12 Nordeste 0 -- -- 72
2019-12-04 21:00:00 8.4 5 Nordeste 8 Norte 0 -- -- 73
2019-12-04 20:00:00 8.6 3 Nordeste 9 Nordeste 0 -- -- 78
2019-12-04 19:00:00 9.1 4 Nordeste 8 Nordeste 0 -- -- 78
2019-12-04 18:00:00 9.9 0 Calma 4 Norte 0 -- -- 72
2019-12-04 17:00:00 11.2 3 Norte 6 Nordeste 0 -- -- 64
2019-12-04 16:00:00 11.9 3 Norte 10 Nordeste 0 -- -- 62
2019-12-04 15:00:00 12.7 4 Nordeste 10 Norte 0 -- -- 58
2019-12-04 14:00:00 11.8 2 Nordeste 6 Norte 0 -- -- 56
2019-12-04 13:00:00 10.9 3 Nordeste 5 Nordeste 0 -- -- 64
2019-12-04 12:00:00 9.9 3 Nordeste 8 Este 0 -- -- 65
2019-12-04 11:00:00 7.6 3 Nordeste 12 Este 0 -- -- 69
2019-12-04 10:00:00 5.6 4 Este 13 Este 0 -- -- 75
2019-12-04 09:00:00 4.8 4 Nordeste 11 Este 0 -- -- 78
2019-12-04 08:00:00 5.4 5 Este 14 Nordeste 0 -- -- 74
2019-12-04 07:00:00 4.2 6 Nordeste 13 Nordeste 0 -- -- 87
2019-12-04 06:00:00 4.8 4 Nordeste 13 Este 0 -- -- 85
2019-12-04 05:00:00 4.7 3 Este 11 Este 0 -- -- 84
2019-12-04 04:00:00 5.1 2 Nordeste 9 Este 0 -- -- 86
2019-12-04 03:00:00 5.6 4 Este 10 Nordeste 0 -- -- 83
2019-12-04 02:00:00 5.6 2 Sudeste 12 Este 0 -- -- 81
2019-12-04 01:00:00 5.7 0 Calma 6 Este 0 -- -- 83
2019-12-04 00:00:00 5.9 2 Este 6 Este 0 -- -- 82
2019-12-03 23:00:00 5.9 3 Sudeste 6 Este 0 -- -- 88
2019-12-03 22:00:00 6.3 2 Sudeste 8 Sudeste 0 -- -- 87
2019-12-03 21:00:00 6.5 3 Sudeste 5 Sudeste 0 -- -- 85
2019-12-03 20:00:00 7.1 0 Calma 6 Sur 0 -- -- 85
2019-12-03 19:00:00 8.2 0 Calma 6 Sur 0 -- -- 85
2019-12-03 18:00:00 9.7 0 Calma 9 Sudoeste 0 -- -- 76
2019-12-03 17:00:00 11.1 5 Oeste 12 Sudoeste 0 -- -- 71
2019-12-03 16:00:00 11.8 5 Oeste 11 Oeste 0 -- -- 69
2019-12-03 15:00:00 12.2 5 Noroeste 9 Oeste 0 -- -- 54
2019-12-03 14:00:00 12.4 3 Norte 9 Nordeste 0 -- -- 57
2019-12-03 13:00:00 11.6 4 Nordeste 10 Nordeste 0 -- -- 58
2019-12-03 12:00:00 10.7 2 Este 11 Este 0 -- -- 64
2019-12-03 11:00:00 7.8 3 Nordeste 12 Nordeste 0 -- -- 70
2019-12-03 10:00:00 6 5 Nordeste 12 Nordeste 0 -- -- 76
2019-12-03 09:00:00 5.3 5 Nordeste 12 Este 0 -- -- 81
2019-12-03 08:00:00 5.7 6 Nordeste 10 Nordeste 0 -- -- 79
2019-12-03 07:00:00 5.7 4 Nordeste 10 Nordeste 0 -- -- 82
2019-12-03 06:00:00 6.6 5 Nordeste 23 Este 0 -- -- 79
2019-12-03 05:00:00 6.4 5 Nordeste 17 Este 0 -- -- 80
2019-12-03 04:00:00 6.7 5 Nordeste 18 Este 0 -- -- 80
2019-12-03 03:00:00 7.3 8 Este 19 Este 0 -- -- 78
2019-12-03 02:00:00 7.6 5 Este 12 Sudeste 0 -- -- 77
2019-12-03 01:00:00 8.1 4 Nordeste 12 Nordeste 0 -- -- 73
2019-12-03 00:00:00 8.4 5 Nordeste 12 Nordeste 0 -- -- 74
2019-12-02 23:00:00 8.8 4 Nordeste 13 Nordeste 0 -- -- 74
2019-12-02 22:00:00 9.4 5 Nordeste 16 Este 0 -- -- 71
2019-12-02 21:00:00 9.9 4 Nordeste 21 Este 0 -- -- 70
2019-12-02 20:00:00 10.3 9 Nordeste 22 Este 0 -- -- 67
2019-12-02 19:00:00 10.7 9 Nordeste 26 Nordeste 0 -- -- 68
2019-12-02 18:00:00 11.7 8 Nordeste 38 Nordeste 0 -- -- 65
2019-12-02 17:00:00 12.9 13 Nordeste 29 Nordeste 0 -- -- 62
2019-12-02 16:00:00 13.8 14 Nordeste 36 Nordeste 0 -- -- 59
2019-12-02 15:00:00 14.5 15 Nordeste 41 Nordeste 0 -- -- 58
2019-12-02 14:00:00 14.4 11 Nordeste 34 Nordeste 0 -- -- 60
2019-12-02 13:00:00 14.1 13 Nordeste 37 Nordeste 0 -- -- 62
2019-12-02 12:00:00 13.5 9 Nordeste 22 Nordeste 0 -- -- 69
2019-12-02 11:00:00 12 6 Nordeste 15 Nordeste 0 -- -- 76
2019-12-02 10:00:00 9.3 2 Este 8 Este 0 -- -- 84
2019-12-02 09:00:00 8.1 0 Calma 8 Norte 0 -- -- 89
2019-12-02 08:00:00 8.4 0 Calma 11 Nordeste 0 -- -- 87
2019-12-02 07:00:00 8.8 3 Nordeste 17 Noroeste 0 -- -- 86
2019-12-02 06:00:00 9 8 Norte 21 Nordeste 0 -- -- 85
2019-12-02 05:00:00 9.4 5 Este 23 Nordeste 0 -- -- 80
2019-12-02 04:00:00 9.5 11 Nordeste 31 Norte 0 -- -- 79
2019-12-02 03:00:00 9.6 11 Norte 33 Nordeste 0 -- -- 76
2019-12-02 02:00:00 9.5 8 Nordeste 41 Norte 0 -- -- 74
2019-12-02 01:00:00 9.7 14 Nordeste 36 Norte 0 -- -- 75
2019-12-02 00:00:00 9.7 8 Nordeste 36 Nordeste 0 -- -- 78
2019-12-01 23:00:00 10 10 Nordeste 32 Nordeste 0 -- -- 76
2019-12-01 22:00:00 10.2 10 Nordeste 23 Nordeste 0 -- -- 74
2019-12-01 21:00:00 10.8 11 Nordeste 31 Norte 0 -- -- 75
2019-12-01 20:00:00 11.3 8 Nordeste 35 Norte 0 -- -- 77
2019-12-01 19:00:00 11.8 13 Nordeste 42 Norte 0 -- -- 81
2019-12-01 18:00:00 12.5 12 Nordeste 30 Nordeste 0 -- -- 77
2019-12-01 17:00:00 13.5 8 Nordeste 27 Norte 0 -- -- 71
2019-12-01 16:00:00 14.5 11 Nordeste 24 Nordeste 0 -- -- 65
2019-12-01 15:00:00 14.8 10 Nordeste 27 Nordeste 0 -- -- 70
2019-12-01 14:00:00 14 9 Nordeste 27 Nordeste 0 -- -- 71
2019-12-01 13:00:00 13.4 13 Nordeste 36 Nordeste 0 -- -- 74
2019-12-01 12:00:00 12.6 13 Norte 28 Norte 0 -- -- 79
2019-12-01 11:00:00 11.3 12 Nordeste 27 Nordeste 0 -- -- 83
2019-12-01 10:00:00 10.3 8 Nordeste 22 Nordeste 0 -- -- 91
2019-12-01 09:00:00 10 8 Norte 23 Nordeste 0 -- -- 93
2019-12-01 08:00:00 10.5 6 Nordeste 21 Este 0 -- -- 98
2019-12-01 07:00:00 10.7 9 Este 22 Sudeste 0 -- -- 100
2019-12-01 06:00:00 11.2 6 Sudoeste 21 Oeste 0 -- -- 99
2019-12-01 05:00:00 11 9 Sudoeste 27 Sudoeste 0 -- -- 97
2019-12-01 04:00:00 11.7 8 Sudoeste 25 Sur 0 -- -- 97
2019-12-01 03:00:00 11.2 9 Sudoeste 22 Sudoeste 0 -- -- 98
2019-12-01 02:00:00 10.5 8 Sudoeste 23 Sudoeste 0 -- -- 95
2019-12-01 01:00:00 10.7 12 Sudoeste 38 Oeste 0 -- -- 97
2019-12-01 00:00:00 11.3 12 Sudoeste 28 Sudoeste 0 -- -- 94
2019-11-30 23:00:00 12.2 12 Sudoeste 24 Sudoeste 0 -- -- 89
2019-11-30 22:00:00 11.9 12 Sudoeste 19 Sudoeste 0 -- -- 92
2019-11-30 21:00:00 11.7 10 Sudoeste 19 Sudoeste 0 -- -- 92
2019-11-30 20:00:00 12 9 Sudoeste 16 Sudoeste 0 -- -- 93
2019-11-30 19:00:00 12 9 Sudoeste 22 Sudoeste 0 -- -- 86
2019-11-30 18:00:00 13.2 8 Sudoeste 21 Sur 0 -- -- 88
2019-11-30 17:00:00 13.5 9 Sudoeste 29 Sudoeste 0 -- -- 81
2019-11-30 16:00:00 14.6 10 Sudoeste 31 Sudoeste 0 -- -- 74
2019-11-30 15:00:00 15.2 10 Sudoeste 26 Sudoeste 0 -- -- 72
2019-11-30 14:00:00 15.6 10 Sudoeste 26 Sudoeste 0 -- -- 78
2019-11-30 13:00:00 15.4 9 Sudoeste 24 Oeste 0 -- -- 78
2019-11-30 12:00:00 14.9 8 Sudoeste 22 Oeste 0 -- -- 83
2019-11-30 11:00:00 13.2 6 Sudoeste 17 Sudoeste 0 -- -- 89
2019-11-30 10:00:00 12.3 5 Sudoeste 14 Sudoeste 0 -- -- 90
2019-11-30 09:00:00 12.1 6 Sudoeste 28 Sudoeste 0 -- -- 86
2019-11-30 08:00:00 13.3 8 Sudoeste 23 Sudoeste 0 -- -- 98
2019-11-30 07:00:00 13.8 6 Sudoeste 30 Sudoeste 0 -- -- 99
2019-11-30 06:00:00 14.6 12 Sudoeste 39 Sur 0 -- -- 100
2019-11-30 05:00:00 15.2 13 Sudoeste 39 Sudoeste 0 -- -- 100
2019-11-30 04:00:00 15.4 14 Sudoeste 30 Sur 0 -- -- 100
2019-11-30 03:00:00 15.4 17 Sudoeste 38 Sudoeste 0 -- -- 99
2019-11-30 02:00:00 15.7 14 Sudoeste 36 Sudoeste 0 -- -- 97
2019-11-30 01:00:00 15.7 14 Sudoeste 36 Sudoeste 0 -- -- 99
2019-11-30 00:00:00 15.7 13 Sudoeste 26 Sudoeste 0 -- -- 98
2019-11-29 23:00:00 15.8 12 Sudoeste 24 Sur 0 -- -- 98
2019-11-29 22:00:00 15.5 10 Sudoeste 22 Sur 0 -- -- 99
2019-11-29 21:00:00 14.9 3 Sur 10 Sur 0 -- -- 98
2019-11-29 20:00:00 14.4 2 Sur 8 Sur 0 -- -- 98
2019-11-29 19:00:00 14.1 0 Calma 8 Noroeste 0 -- -- 97
2019-11-29 18:00:00 14.4 2 Norte 7 Nordeste 0 -- -- 94
2019-11-29 17:00:00 14.7 0 Calma 13 Oeste 0 -- -- 92
2019-11-29 16:00:00 15.6 3 Noroeste 8 Sudoeste 0 -- -- 88
2019-11-29 15:00:00 16 0 Calma 8 Este 0 -- -- 87
2019-11-29 14:00:00 15.5 2 Este 8 Este 0 -- -- 90
2019-11-29 13:00:00 15.3 3 Este 9 Este 0 -- -- 88
2019-11-29 12:00:00 13.8 4 Este 6 Este 0 -- -- 96
2019-11-29 11:00:00 12.7 0 Calma 6 Nordeste 0 -- -- 100
2019-11-29 10:00:00 12.1 0 Calma 12 Este 0 -- -- 100
2019-11-29 09:00:00 11.8 4 Este 9 Este 0 -- -- 100
2019-11-29 08:00:00 11.6 3 Nordeste 13 Nordeste 0 -- -- 100
2019-11-29 07:00:00 11.5 4 Sudeste 10 Sudeste 0 -- -- 100
2019-11-29 06:00:00 11.5 2 Sudeste 6 Norte 0 -- -- 100
2019-11-29 05:00:00 11.7 0 Calma 11 Nordeste 0 -- -- 100
2019-11-29 04:00:00 11.8 3 Nordeste 8 Nordeste 0 -- -- 100
2019-11-29 03:00:00 11.4 2 Este 4 Sudeste 0 -- -- 100
2019-11-29 02:00:00 11.7 0 Calma 4 Sudeste 0 -- -- 100
2019-11-29 01:00:00 11.8 0 Calma 4 Sudoeste 0 -- -- 100
2019-11-29 00:00:00 12.3 3 Sur 8 Sudoeste 0 -- -- 100
2019-11-28 23:00:00 12.4 3 Sudoeste 7 Sudoeste 0 -- -- 99
2019-11-28 22:00:00 13.2 3 Sudoeste 9 Sudoeste 0 -- -- 99
2019-11-28 21:00:00 13.9 4 Sudoeste 13 Oeste 0 -- -- 100
2019-11-28 20:00:00 14.4 6 Sudoeste 20 Sudoeste 0 -- -- 100
2019-11-28 19:00:00 15 10 Sudoeste 32 Sudoeste 0 -- -- 100
2019-11-28 18:00:00 15.1 15 Sudoeste 46 Sudoeste 0.6 -- -- 100
2019-11-28 17:00:00 15.4 20 Sudoeste 40 Sudoeste 1.4 -- -- 99
2019-11-28 16:00:00 15.2 18 Sudoeste 40 Sur 1.2 -- -- 98
2019-11-28 15:00:00 15 20 Sudoeste 37 Sudoeste 1.2 -- -- 96
2019-11-28 14:00:00 14 15 Sudoeste 29 Sudoeste 0.4 -- -- 96
2019-11-28 13:00:00 13.5 8 Sudoeste 24 Sur 0.8 -- -- 96
2019-11-28 12:00:00 14 8 Sudoeste 18 Sudoeste 0 -- -- 91
2019-11-28 11:00:00 13.2 6 Sudoeste 16 Sur 0 -- -- 100
2019-11-28 10:00:00 12.8 5 Sudoeste 14 Sudoeste 0 -- -- 100
2019-11-28 09:00:00 12.6 4 Sudoeste 8 Sudoeste 0.4 -- -- 100
2019-11-28 08:00:00 12.3 2 Sudoeste 13 Sudoeste 1.6 -- -- 100
2019-11-28 07:00:00 12.3 2 Sudoeste 6 Oeste 1.2 -- -- 100
2019-11-28 06:00:00 12.6 0 Calma 13 Oeste 1.8 -- -- 100
2019-11-28 05:00:00 13.6 6 Oeste 28 Sudoeste 1.4 -- -- 99
2019-11-28 04:00:00 14.8 12 Sudoeste 37 Sudoeste 0.2 -- -- 99
2019-11-28 03:00:00 14.8 12 Sudoeste 32 Sudoeste 0.2 -- -- 99
2019-11-28 02:00:00 14.4 14 Sudoeste 28 Sudoeste 1.6 -- -- 100
2019-11-28 01:00:00 13.8 8 Sudoeste 20 Sudoeste 1.4 -- -- 98
2019-11-28 00:00:00 14 11 Sudoeste 24 Sudoeste 0 -- -- 97
2019-11-27 23:00:00 14.1 10 Sudoeste 21 Sudoeste 0.2 -- -- 95
2019-11-27 22:00:00 14 11 Sudoeste 22 Sudoeste 0 -- -- 93
2019-11-27 21:00:00 13.6 12 Sudoeste 22 Sudoeste 0 -- -- 95
2019-11-27 20:00:00 13.2 10 Sudoeste 22 Oeste 0 -- -- 95
2019-11-27 19:00:00 12.7 9 Sudoeste 26 Sudoeste 0.2 -- -- 97
2019-11-27 18:00:00 13 8 Sudoeste 21 Sudoeste 0 -- -- 92
2019-11-27 17:00:00 12.6 10 Sudoeste 32 Sudoeste 0 -- -- 93
2019-11-27 16:00:00 14.1 10 Sudoeste 28 Sudoeste 0 -- -- 88
2019-11-27 15:00:00 14.1 11 Sudoeste 26 Oeste 0 -- -- 88
2019-11-27 14:00:00 12.9 8 Sudoeste 28 Oeste 1.2 -- -- 97
2019-11-27 06:00:00 -- -- -- -- -- -- -- -- --
2019-11-27 05:00:00 -- -- -- -- -- -- -- -- --
2019-11-27 04:00:00 -- -- -- -- -- -- -- -- --
2019-11-27 03:00:00 12.6 12 Sudoeste 32 Oeste 0.8 -- -- 96
2019-11-27 02:00:00 13.2 12 Sudoeste 22 Sudoeste 0 -- -- 89
2019-11-27 01:00:00 12.9 10 Sudoeste 33 Sudoeste 0 -- -- 91
2019-11-27 00:00:00 12.6 11 Sudoeste 30 Sudoeste 0.4 -- -- 90
2019-11-26 23:00:00 13.2 12 Sudoeste 28 Sudoeste 0 -- -- 84
2019-11-26 22:00:00 13.4 12 Sudoeste 32 Sudoeste 0 -- -- 83
2019-11-26 21:00:00 13.3 8 Sudoeste 24 Oeste 0 -- -- 86
2019-11-26 20:00:00 13.4 11 Sudoeste 33 Sudoeste 0 -- -- 89
2019-11-26 19:00:00 13.3 14 Sudoeste 34 Sudoeste 0 -- -- 90
2019-11-26 18:00:00 13 14 Sudoeste 42 Sudoeste 0.6 -- -- 89
2019-11-26 17:00:00 15.2 23 Sudoeste 49 Sudoeste 0.2 -- -- 86
2019-11-26 16:00:00 15.7 19 Sudoeste 48 Sur 0 -- -- 89
2019-11-26 15:00:00 15.2 21 Sudoeste 45 Sur 2.6 -- -- 92
2019-11-26 14:00:00 14.9 20 Sudoeste 44 Sudoeste 2.6 -- -- 95
2019-11-26 13:00:00 16 12 Sudoeste 36 Sudoeste 0 -- -- 86
2019-11-26 12:00:00 16.5 12 Sudoeste 30 Sudoeste 0 -- -- 84
2019-11-26 11:00:00 16.1 10 Sudoeste 26 Sur 0 -- -- 88
2019-11-26 10:00:00 15.3 10 Sudoeste 22 Sur 0 -- -- 92
2019-11-26 09:00:00 14.9 8 Sudoeste 23 Sudoeste 0 -- -- 93
2019-11-26 08:00:00 14.9 10 Sudoeste 21 Sudoeste 0 -- -- 96
2019-11-26 07:00:00 14.9 10 Sudoeste 23 Sudoeste 0 -- -- 99
2019-11-26 06:00:00 15.1 9 Sudoeste 22 Sudoeste 0 -- -- 100
2019-11-26 05:00:00 15.4 10 Sudoeste 32 Oeste 0.4 -- -- 100
2019-11-26 04:00:00 16.1 12 Sudoeste 28 Sudoeste 0.2 -- -- 99
2019-11-26 03:00:00 16 13 Sudoeste 28 Sudoeste 1 -- -- 100
2019-11-26 02:00:00 15.8 14 Sudoeste 32 Sudoeste 2.6 -- -- 98
2019-11-26 01:00:00 15.8 13 Sudoeste 35 Sur 0.2 -- -- 96
2019-11-26 00:00:00 15 16 Sur 35 Sur 0 -- -- 95
2019-11-25 23:00:00 14.7 12 Sur 30 Sur 0 -- -- 94
2019-11-25 22:00:00 14.8 8 Sur 27 Sur 0 -- -- 92
2019-11-25 21:00:00 14.5 4 Sur 27 Sur 0 -- -- 91
2019-11-25 20:00:00 14.7 13 Sur 28 Sur 0 -- -- 90
2019-11-25 19:00:00 14.3 12 Sur 24 Sur 0 -- -- 92
2019-11-25 18:00:00 14.7 9 Sur 21 Sudeste 0 -- -- 87
2019-11-25 17:00:00 15.3 12 Sudoeste 21 Sudoeste 0 -- -- 83
2019-11-25 16:00:00 16.1 7 Sudoeste 17 Sudoeste 0 -- -- 79
2019-11-25 15:00:00 16.4 6 Sudoeste 15 Sur 0 -- -- 76
2019-11-25 14:00:00 16.2 7 Sudoeste 19 Sudoeste 0 -- -- 76
2019-11-25 13:00:00 15.9 5 Sudoeste 15 Sur 0 -- -- 79
2019-11-25 12:00:00 14.7 5 Sudoeste 13 Sudoeste 0 -- -- 88
2019-11-25 11:00:00 14 3 Sudoeste 9 Sudoeste 0 -- -- 92
2019-11-25 10:00:00 13.1 4 Sudoeste 9 Sudoeste 0 -- -- 98
2019-11-25 09:00:00 12.7 3 Sudoeste 19 Sudoeste 0.4 -- -- 99
2019-11-25 08:00:00 13.1 6 Sudoeste 23 Sudoeste 0 -- -- 96
2019-11-25 07:00:00 14 9 Sudoeste 25 Sudoeste 0 -- -- 97
2019-11-25 06:00:00 13.7 8 Sudoeste 24 Sudoeste 0 -- -- 97
2019-11-25 05:00:00 13.5 8 Sudoeste 21 Sudoeste 0 -- -- 98
2019-11-25 04:00:00 13.5 8 Sudoeste 21 Sudoeste 0 -- -- 98
2019-11-25 03:00:00 13.5 9 Sudoeste 30 Oeste 0.2 -- -- 99
2019-11-25 02:00:00 14.7 10 Sudoeste 27 Oeste 0.8 -- -- 97
2019-11-25 01:00:00 14.9 11 Sudoeste 33 Sudoeste 0 -- -- 97
2019-11-25 00:00:00 14.9 13 Sudoeste 35 Sudoeste 0 -- -- 97
2019-11-24 23:00:00 15.1 13 Sudoeste 34 Sudoeste 0 -- -- 99
2019-11-24 22:00:00 15.3 12 Sudoeste 32 Sudoeste 0 -- -- 100
2019-11-24 21:00:00 15.2 12 Sudoeste 31 Sudoeste 0 -- -- 100
2019-11-24 20:00:00 15.2 13 Sudoeste 41 Sudoeste 0.4 -- -- 99
2019-11-24 19:00:00 14.6 9 Sudoeste 29 Sudoeste 3.2 -- -- 99
2019-11-24 18:00:00 14.8 17 Sudoeste 42 Sur 0.2 -- -- 97
2019-11-24 17:00:00 14.2 20 Sudoeste 38 Sur 1.8 -- -- 97
2019-11-24 16:00:00 14.5 19 Sudoeste 40 Sur 0 -- -- 92
2019-11-24 15:00:00 13.3 13 Sur 35 Sur 0 -- -- 94
2019-11-24 14:00:00 12.4 14 Sur 40 Sur 0.2 -- -- 94
2019-11-24 13:00:00 12.3 14 Sur 28 Sur 0 -- -- 91
2019-11-24 12:00:00 12 7 Sur 22 Sudoeste 0 -- -- 90
2019-11-24 11:00:00 11.8 6 Sur 26 Sudoeste 0 -- -- 89
2019-11-24 10:00:00 11.5 11 Sur 27 Sudeste 0 -- -- 89
2019-11-24 09:00:00 11 8 Sur 27 Sudoeste 0 -- -- 90
2019-11-24 08:00:00 10.7 7 Sur 15 Sur 0 -- -- 90
2019-11-24 07:00:00 10.1 4 Sur 20 Sur 0 -- -- 91
2019-11-24 06:00:00 10 6 Sur 15 Sur 0 -- -- 91
2019-11-24 05:00:00 9.9 4 Sur 9 Sur 0 -- -- 91
2019-11-24 04:00:00 9.2 0 Calma 6 Sur 0 -- -- 94
2019-11-24 03:00:00 9.5 2 Sur 6 Sudeste 0 -- -- 94
2019-11-24 02:00:00 9.5 2 Sur 7 Noroeste 0 -- -- 96
2019-11-24 01:00:00 9.4 2 Sudeste 9 Sudeste 0 -- -- 96
2019-11-24 00:00:00 9.5 3 Sur 7 Sudeste 0 -- -- 96
2019-11-23 23:00:00 9.6 0 Calma 5 Sur 0 -- -- 98
2019-11-23 22:00:00 10 2 Sur 6 Sudeste 0 -- -- 97
2019-11-23 21:00:00 10.4 0 Calma 5 Sudoeste 0 -- -- 95
2019-11-23 20:00:00 11 3 Sur 9 Norte 0 -- -- 93
2019-11-23 19:00:00 11.3 3 Norte 10 Nordeste 0.2 -- -- 92
2019-11-23 18:00:00 11.4 3 Nordeste 13 Noroeste 1 -- -- 90
2019-11-23 17:00:00 12.4 5 Nordeste 15 Norte 0 -- -- 87
2019-11-23 16:00:00 13.2 4 Nordeste 14 Sudoeste 0 -- -- 79
2019-11-23 15:00:00 13.3 4 Sur 16 Nordeste 0 -- -- 83
2019-11-23 14:00:00 13.3 4 Nordeste 16 Norte 0 -- -- 81
2019-11-23 13:00:00 12.7 3 Oeste 22 Oeste 0 -- -- 83
2019-11-23 12:00:00 11.2 4 Sur 12 Noroeste 0.2 -- -- 90
2019-11-23 11:00:00 11.2 3 Norte 12 Nordeste 0.2 -- -- 88
2019-11-23 10:00:00 10.2 5 Norte 14 Noroeste 0.2 -- -- 86
2019-11-23 09:00:00 9.8 3 Norte 14 Norte 0.4 -- -- 88
2019-11-23 08:00:00 10.2 8 Norte 17 Norte 0.2 -- -- 87
2019-11-23 07:00:00 9.9 3 Oeste 9 Nordeste 0 -- -- 89
2019-11-23 06:00:00 9.9 6 Norte 20 Nordeste 0 -- -- 92
2019-11-23 05:00:00 10.1 4 Norte 14 Norte 0.8 -- -- 88
2019-11-23 04:00:00 10.6 8 Norte 20 Norte 0 -- -- 81
2019-11-23 03:00:00 10.3 8 Norte 27 Noroeste 0 -- -- 78
2019-11-23 02:00:00 11.1 9 Norte 26 Noroeste 0 -- -- 75
2019-11-23 01:00:00 10.8 12 Norte 28 Norte 0.2 -- -- 81
2019-11-23 00:00:00 9.6 4 Este 39 Nordeste 1.8 -- -- 89
2019-11-22 23:00:00 10.2 11 Nordeste 46 Nordeste 2 -- -- 86
2019-11-22 22:00:00 11.6 8 Sudeste 31 Norte 0 -- -- 81
2019-11-22 21:00:00 11.6 11 Nordeste 41 Noroeste 0 -- -- 83
2019-11-22 20:00:00 11.5 9 Este 33 Noroeste 0.2 -- -- 89
2019-11-22 19:00:00 12.1 10 Sudoeste 32 Sudoeste 0 -- -- 91
2019-11-22 18:00:00 12.3 9 Sudoeste 30 Oeste 0.2 -- -- 91
2019-11-22 17:00:00 12.8 14 Sudoeste 54 Sudoeste 3.2 -- -- 93
2019-11-22 16:00:00 13.4 16 Sudoeste 46 Sudoeste 0.2 -- -- 91
2019-11-22 15:00:00 13 14 Sudoeste 34 Sudoeste 1.4 -- -- 92
2019-11-22 14:00:00 13.9 11 Sudoeste 33 Oeste 0.2 -- -- 88
2019-11-22 13:00:00 14.2 12 Sudoeste 33 Oeste 0.2 -- -- 83
2019-11-22 12:00:00 14.1 11 Sudoeste 37 Oeste 0 -- -- 90
2019-11-22 11:00:00 12.5 12 Sudoeste 42 Sudoeste 5.8 -- -- 99
2019-11-22 10:00:00 14.6 15 Sudoeste 42 Sudoeste 0 -- -- 93
2019-11-22 09:00:00 14.6 18 Sudoeste 39 Sudoeste 0.8 -- -- 96
2019-11-22 08:00:00 14.2 18 Sudoeste 41 Sudoeste 3.4 -- -- 98
2019-11-22 07:00:00 13.2 13 Sudoeste 37 Sur 0.4 -- -- 97
2019-11-22 06:00:00 12.9 23 Sudoeste 46 Sur 0 -- -- 92
2019-11-22 05:00:00 11.8 19 Sur 47 Sur 1.6 -- -- 96
2019-11-22 04:00:00 11.5 15 Sur 43 Sur 1.4 -- -- 93
2019-11-22 03:00:00 11.2 15 Sur 39 Sur 0.8 -- -- 93
2019-11-22 02:00:00 10.9 9 Sur 30 Sur 0.8 -- -- 94
2019-11-22 01:00:00 11 9 Sur 28 Sudeste 0.4 -- -- 92
2019-11-22 00:00:00 11.4 9 Sur 27 Sur 0 -- -- 90
2019-11-21 23:00:00 11.5 10 Sur 21 Sur 0 -- -- 89
2019-11-21 22:00:00 11.3 9 Sur 18 Sudoeste 0 -- -- 88
2019-11-21 21:00:00 11.3 9 Sur 17 Sur 0 -- -- 86
2019-11-21 20:00:00 11.2 8 Sur 19 Sur 0 -- -- 85
2019-11-21 19:00:00 11.3 6 Sur 18 Sur 0 -- -- 85
2019-11-21 18:00:00 11.8 5 Sur 11 Sudoeste 0 -- -- 81
2019-11-21 17:00:00 12.7 5 Sudoeste 16 Sudoeste 0 -- -- 74
2019-11-21 16:00:00 13.9 8 Sudoeste 20 Oeste 0 -- -- 71
2019-11-21 15:00:00 13.1 5 Sudoeste 14 Sudoeste 0 -- -- 80
2019-11-21 14:00:00 11.6 3 Oeste 23 Sur 1 -- -- 85
2019-11-21 13:00:00 14.5 5 Sudoeste 14 Sudoeste 0 -- -- 76
2019-11-21 12:00:00 -- 4 Sudoeste 10 Sudoeste 0 -- -- --
2019-11-21 11:00:00 11.2 3 Sur 8 Sudeste 0 -- -- 92
2019-11-21 10:00:00 8.5 4 Sur 10 Norte 2.6 -- -- 99
2019-11-21 09:00:00 8.1 0 Calma 9 Sudeste 0 -- -- 95
2019-11-21 08:00:00 8 3 Sur 8 Sudeste 0 -- -- 96
2019-11-21 07:00:00 7.7 3 Sur 8 Sudeste 0 -- -- 97
2019-11-21 06:00:00 8.1 3 Sur 7 Sudeste 0 -- -- 98
2019-11-21 05:00:00 8.6 3 Sur 5 Sudeste 0 -- -- 99
2019-11-21 04:00:00 9.1 3 Sudoeste 7 Oeste 0 -- -- 98
2019-11-21 03:00:00 9.6 4 Oeste 14 Sur 0 -- -- 97
2019-11-21 02:00:00 9.3 4 Sur 18 Sudoeste 9.4 -- -- 98
2019-11-21 01:00:00 9.6 3 Sudoeste 18 Sur 2.2 -- -- 92
2019-11-21 00:00:00 9.7 5 Sur 12 Sur 0 -- -- 92
2019-11-20 23:00:00 9.5 4 Sur 13 Sudeste 0 -- -- 91
2019-11-20 22:00:00 9.4 4 Sur 16 Sudoeste 0.2 -- -- 91
2019-11-20 21:00:00 9.7 3 Sur 9 Sudeste 0 -- -- 94
2019-11-20 20:00:00 9.8 4 Sur 12 Sur 0.2 -- -- 91
2019-11-20 19:00:00 9.6 3 Sur 12 Sur 0 -- -- 91
2019-11-20 18:00:00 10.1 5 Sur 16 Sudeste 0 -- -- 93
2019-11-20 17:00:00 10.5 4 Sur 12 Sudoeste 0.2 -- -- 94
2019-11-20 16:00:00 10.3 0 Calma 13 Sudeste 0 -- -- 93
2019-11-20 15:00:00 9.8 4 Sudeste 16 Sur 0.2 -- -- 93
2019-11-20 14:00:00 9 6 Sur 18 Sur 2.4 -- -- 94
2019-11-20 13:00:00 9.8 10 Sur 24 Sur 0.8 -- -- 92
2019-11-20 12:00:00 10.3 5 Sur 17 Sur 0 -- -- 85
2019-11-20 11:00:00 9.7 3 Sudeste 12 Sudeste 0 -- -- 87
2019-11-20 10:00:00 8.6 3 Sudeste 10 Sudeste 0 -- -- 95
2019-11-20 09:00:00 8.1 3 Este 13 Sudeste 0 -- -- 96
2019-11-20 08:00:00 8.1 4 Sudeste 9 Sudeste 0 -- -- 99
2019-11-20 07:00:00 7.6 3 Este 8 Sudeste 0 -- -- 100
2019-11-20 06:00:00 7.5 2 Este 8 Este 0 -- -- 100
2019-11-20 05:00:00 7.7 3 Este 6 Este 0 -- -- 100
2019-11-20 04:00:00 7.8 0 Calma 6 Sudeste 0 -- -- 100
2019-11-20 03:00:00 7.7 3 Sudeste 7 Sudeste 0 -- -- 99
2019-11-20 02:00:00 7.8 3 Este 7 Este 0 -- -- 98
2019-11-20 01:00:00 8.5 2 Sur 8 Sur 0 -- -- 99
2019-11-20 00:00:00 8.9 3 Sur 9 Sudeste 0 -- -- 98
2019-11-19 23:00:00 9.2 0 Calma 8 Sudeste 0 -- -- 97
2019-11-19 22:00:00 9.8 2 Sudeste 8 Sudeste 0 -- -- 96
2019-11-19 21:00:00 10.2 3 Este 9 Sudoeste 0 -- -- 96
2019-11-19 20:00:00 10.4 5 Sur 21 Sur 0.4 -- -- 98
2019-11-19 19:00:00 10.2 3 Sudoeste 9 Sudoeste 1 -- -- 98
2019-11-19 18:00:00 10.1 3 Sur 9 Nordeste 0.4 -- -- 96
2019-11-19 17:00:00 9.9 3 Este 13 Este 2 -- -- 97
2019-11-19 16:00:00 10.3 4 Sudeste 17 Sudeste 0.8 -- -- 93
2019-11-19 15:00:00 10.1 3 Este 12 Nordeste 0.2 -- -- 93
2019-11-19 14:00:00 9.6 4 Nordeste 18 Nordeste 0.2 -- -- 93
2019-11-19 13:00:00 9.5 4 Sudeste 18 Sudeste 0 -- -- 90
2019-11-19 12:00:00 9.5 5 Sur 15 Sur 0.6 -- -- 92
2019-11-19 11:00:00 9.5 4 Sur 12 Sur 0 -- -- 85
2019-11-19 10:00:00 9 4 Sur 15 Sur 0 -- -- 88
2019-11-19 09:00:00 8.6 5 Sudeste 12 Sudeste 0.2 -- -- 90
2019-11-19 08:00:00 8.3 2 Sudeste 10 Sur 0.4 -- -- 91
2019-11-19 07:00:00 8.5 3 Sudeste 9 Este 0 -- -- 87
2019-11-19 06:00:00 8.2 3 Sudeste 7 Este 0 -- -- 88
2019-11-19 05:00:00 8.1 2 Sudeste 7 Sur 0 -- -- 91
2019-11-19 04:00:00 7.9 4 Sudeste 8 Sudeste 0 -- -- 95
2019-11-19 03:00:00 7.7 3 Este 6 Sudeste 0 -- -- 97
2019-11-19 02:00:00 7.6 0 Calma 6 Sudeste 0 -- -- 96
2019-11-19 01:00:00 7.8 3 Este 8 Este 0 -- -- 96
2019-11-19 00:00:00 7.8 0 Calma 5 Sudeste 0 -- -- 96
2019-11-18 23:00:00 8 3 Sudeste 6 Sudeste 0 -- -- 96
2019-11-18 22:00:00 8.4 3 Sudeste 6 Sudeste 0 -- -- 95
2019-11-18 21:00:00 8.7 0 Calma 8 Sudeste 0 -- -- 94
2019-11-18 20:00:00 9.6 2 Sudoeste 5 Sudoeste 0 -- -- 92
2019-11-18 19:00:00 10.7 0 Calma 7 Oeste 0 -- -- 85
2019-11-18 18:00:00 11.3 2 Noroeste 7 Sudoeste 0 -- -- 83
2019-11-18 17:00:00 12.1 2 Noroeste 10 Norte 0 -- -- 81
2019-11-18 16:00:00 12.9 3 Norte 12 Noroeste 0 -- -- 77
2019-11-18 15:00:00 14.3 3 Nordeste 8 Nordeste 0 -- -- 64
2019-11-18 14:00:00 12.9 4 Norte 10 Noroeste 0 -- -- 74
2019-11-18 13:00:00 12.4 4 Norte 8 Noroeste 0 -- -- 73
2019-11-18 12:00:00 11.9 2 Nordeste 9 Nordeste 0 -- -- 77
2019-11-18 11:00:00 10.1 4 Nordeste 7 Nordeste 0 -- -- 86
2019-11-18 10:00:00 8.2 0 Calma 4 Nordeste 0 -- -- 94
2019-11-18 09:00:00 7 0 Calma 6 Sudeste 0 -- -- 96
2019-11-18 08:00:00 6.8 4 Sudeste 7 Sudeste 0 -- -- 97
2019-11-18 07:00:00 7 2 Sur 5 Sur 0 -- -- 97
2019-11-18 06:00:00 7.3 0 Calma 3 Sudoeste 0 -- -- 97
2019-11-18 05:00:00 7.6 0 Calma 11 Nordeste 0 -- -- 95
2019-11-18 04:00:00 8.2 5 Norte 11 Nordeste 0 -- -- 94
2019-11-18 03:00:00 8.3 3 Nordeste 9 Norte 0 -- -- 94
2019-11-18 02:00:00 9 5 Nordeste 15 Norte 0 -- -- 90
2019-11-18 01:00:00 8.9 3 Nordeste 8 Norte 0 -- -- 94
2019-11-18 00:00:00 9.5 0 Calma 12 Norte 0 -- -- 89
2019-11-17 23:00:00 10.2 6 Norte 21 Noroeste 0 -- -- 86
2019-11-17 22:00:00 10.4 8 Norte 17 Norte 0 -- -- 85
2019-11-17 21:00:00 10.6 3 Norte 13 Noroeste 0 -- -- 86
2019-11-17 20:00:00 10.7 3 Norte 11 Noroeste 0 -- -- 83
2019-11-17 19:00:00 11.2 5 Norte 21 Noroeste 0 -- -- 78
2019-11-17 18:00:00 11.7 6 Norte 22 Noroeste 0 -- -- 79
2019-11-17 17:00:00 12 8 Norte 28 Norte 0 -- -- 75
2019-11-17 16:00:00 12.4 7 Norte 26 Noroeste 0 -- -- 74
2019-11-17 15:00:00 12.8 6 Norte 20 Norte 0 -- -- 77
2019-11-17 14:00:00 12.7 7 Norte 19 Noroeste 0 -- -- 85
2019-11-17 13:00:00 11.8 2 Nordeste 8 Noroeste 0 -- -- 90
2019-11-17 12:00:00 11.5 0 Calma 6 Oeste 0 -- -- 96
2019-11-17 11:00:00 10.8 3 Noroeste 13 Noroeste 0.2 -- -- 98
2019-11-17 10:00:00 10.8 5 Norte 13 Noroeste 0 -- -- 100
2019-11-17 09:00:00 10.7 4 Norte 14 Oeste 2.2 -- -- 100
2019-11-17 08:00:00 10.8 4 Sudoeste 14 Oeste 3.4 -- -- 100
2019-11-17 07:00:00 10.1 3 Sudoeste 11 Noroeste 2.2 -- -- 99
2019-11-17 06:00:00 9.7 0 Calma 5 Este 1 -- -- 97
2019-11-17 05:00:00 9.7 3 Sudeste 9 Este 0 -- -- 95
2019-11-17 04:00:00 9.6 4 Este 10 Sudeste 0 -- -- 93
2019-11-17 03:00:00 9.6 3 Sudeste 11 Este 0 -- -- 94
2019-11-17 02:00:00 9.5 6 Este 13 Este 0 -- -- 91
2019-11-17 01:00:00 9.6 5 Este 11 Este 0 -- -- 90
2019-11-17 00:00:00 9.8 4 Sudeste 13 Sudeste 0 -- -- 90
2019-11-16 23:00:00 10 5 Sur 14 Sudeste 0 -- -- 88
2019-11-16 22:00:00 10.1 5 Sur 18 Sur 0 -- -- 87
2019-11-16 21:00:00 10 6 Sur 17 Sudoeste 0 -- -- 87
2019-11-16 20:00:00 10.3 6 Sur 13 Sur 0 -- -- 83
2019-11-16 19:00:00 10.3 5 Sur 12 Sudoeste 0 -- -- 82
2019-11-16 18:00:00 10.7 5 Sudoeste 12 Sudoeste 0 -- -- 74
2019-11-16 17:00:00 11.1 5 Sudoeste 18 Oeste 0 -- -- 74
2019-11-16 16:00:00 12.1 5 Sudoeste 12 Sudoeste 0 -- -- 70
2019-11-16 15:00:00 11.7 5 Sudoeste 12 Sudoeste 0 -- -- 72
2019-11-16 14:00:00 11.2 3 Noroeste 10 Noroeste 0 -- -- 79
2019-11-16 13:00:00 12.1 3 Oeste 7 Sudoeste 0 -- -- 75
2019-11-16 12:00:00 9.4 0 Calma 4 Sudeste 0 -- -- 83
2019-11-16 11:00:00 8.3 0 Calma 5 Este 0 -- -- 88
2019-11-16 10:00:00 6.4 0 Calma 8 Sudeste 0 -- -- 94
2019-11-16 09:00:00 5.7 0 Calma 5 Nordeste 0 -- -- 95
2019-11-16 08:00:00 5.6 0 Calma 6 Sudeste 0 -- -- 93
2019-11-16 07:00:00 5.6 0 Calma 6 Sudeste 0 -- -- 93
2019-11-16 06:00:00 4.9 2 Este 6 Sur 0 -- -- 95
2019-11-16 05:00:00 4.8 2 Este 6 Nordeste 0 -- -- 94
2019-11-16 04:00:00 5.1 0 Calma 6 Nordeste 0 -- -- 93
2019-11-16 03:00:00 5.6 3 Nordeste 8 Este 0 -- -- 90
2019-11-16 02:00:00 5 2 Nordeste 9 Sudeste 0 -- -- 92
2019-11-16 01:00:00 5.5 0 Calma 12 Noroeste 0 -- -- 89
2019-11-16 00:00:00 6.7 5 Norte 16 Norte 0 -- -- 84
2019-11-15 23:00:00 6.9 5 Norte 17 Nordeste 0 -- -- 81
2019-11-15 22:00:00 6.7 6 Nordeste 19 Norte 0 -- -- 82
2019-11-15 21:00:00 6.9 9 Nordeste 22 Nordeste 0 -- -- 83
2019-11-15 20:00:00 7 6 Norte 15 Noroeste 0 -- -- 85
2019-11-15 19:00:00 6.5 0 Calma 9 Norte 0 -- -- 87
2019-11-15 18:00:00 7.4 4 Nordeste 30 Nordeste 0 -- -- 83
2019-11-15 17:00:00 7.8 11 Nordeste 43 Nordeste 0 -- -- 80
2019-11-15 16:00:00 7.9 17 Nordeste 44 Nordeste 0.4 -- -- 82
2019-11-15 15:00:00 10.9 14 Norte 28 Norte 0 -- -- 61
2019-11-15 14:00:00 11 12 Norte 30 Norte 0 -- -- 60
2019-11-15 13:00:00 10.1 15 Norte 31 Norte 0 -- -- 64
2019-11-15 12:00:00 9.8 14 Norte 30 Norte 0 -- -- 66
2019-11-15 11:00:00 8.8 11 Norte 32 Noroeste 0 -- -- 69
2019-11-15 10:00:00 7.7 7 Norte 18 Oeste 0 -- -- 72
2019-11-15 09:00:00 6.7 5 Norte 15 Noroeste 0 -- -- 76
2019-11-15 08:00:00 7.2 8 Norte 38 Norte 0 -- -- 76
2019-11-15 07:00:00 7.4 10 Norte 23 Norte 0 -- -- 74
2019-11-15 06:00:00 7 4 Norte 17 Norte 0 -- -- 74
2019-11-15 05:00:00 6.2 0 Calma 12 Norte 0 -- -- 78
2019-11-15 04:00:00 7.3 5 Norte 18 Norte 0 -- -- 73
2019-11-15 03:00:00 7.8 10 Norte 21 Norte 0 -- -- 71
2019-11-15 02:00:00 8.1 9 Norte 49 Norte 0 -- -- 68
2019-11-15 01:00:00 8.8 14 Norte 38 Norte 0 -- -- 65
2019-11-15 00:00:00 9 12 Norte 28 Norte 0 -- -- 67
2019-11-14 23:00:00 8.9 7 Norte 31 Norte 0 -- -- 74
2019-11-14 22:00:00 9.3 13 Norte 37 Noroeste 0 -- -- 70
2019-11-14 21:00:00 9.5 13 Norte 37 Noroeste 0 -- -- 74
2019-11-14 20:00:00 10.1 12 Norte 48 Norte 0 -- -- 69
2019-11-14 19:00:00 10.3 18 Norte 55 Norte 0 -- -- 71
2019-11-14 18:00:00 10.9 15 Norte 45 Noroeste 0.2 -- -- 72
2019-11-14 17:00:00 11.3 18 Norte 48 Norte 0.2 -- -- 73
2019-11-14 16:00:00 11.9 18 Norte 57 Norte 0 -- -- 72
2019-11-14 15:00:00 11.4 21 Norte 57 Noroeste 0 -- -- 79
2019-11-14 14:00:00 10.5 17 Norte 54 Norte 3.4 -- -- 84
2019-11-14 13:00:00 11.5 24 Norte 57 Norte 0.2 -- -- 80
2019-11-14 12:00:00 11.7 12 Este 31 Oeste 0 -- -- 79
2019-11-14 11:00:00 9.9 11 Sur 30 Oeste 0.6 -- -- 90
2019-11-14 10:00:00 8.4 9 Norte 47 Nordeste 0.2 -- -- 87
2019-11-14 09:00:00 7.6 3 Norte 28 Oeste 2 -- -- 90
2019-11-14 08:00:00 7.1 3 Este 27 Noroeste 2.8 -- -- 92
2019-11-14 07:00:00 7.6 16 Norte 38 Norte 1.6 -- -- 91
2019-11-14 06:00:00 10.1 9 Nordeste 27 Noroeste 0 -- -- 74
2019-11-14 05:00:00 9.6 8 Nordeste 31 Norte 0 -- -- 77
2019-11-14 04:00:00 8.5 4 Norte 26 Noroeste 0.8 -- -- 91
2019-11-14 03:00:00 8.3 12 Norte 49 Norte 1.6 -- -- 93
2019-11-14 02:00:00 10 15 Norte 41 Norte 0.4 -- -- 86
2019-11-14 01:00:00 10.6 8 Norte 39 Norte 0.6 -- -- 92
2019-11-14 00:00:00 11 14 Norte 39 Norte 0.4 -- -- 87
2019-11-13 23:00:00 11.5 7 Sudeste 38 Oeste 2.2 -- -- 96
2019-11-13 22:00:00 12.8 13 Sudoeste 39 Sudoeste 1 -- -- 87
2019-11-13 21:00:00 12.3 7 Sudoeste 19 Sudoeste 0 -- -- 92
2019-11-13 20:00:00 11.5 4 Sudoeste 16 Sudoeste 0.8 -- -- 95
2019-11-13 19:00:00 12.6 8 Sudoeste 19 Sudoeste 0 -- -- 87
2019-11-13 18:00:00 12.7 5 Sudoeste 13 Oeste 0 -- -- 86
2019-11-13 17:00:00 13.7 3 Sudeste 14 Norte 0 -- -- 78
2019-11-13 16:00:00 14.4 5 Norte 18 Norte 0 -- -- 77
2019-11-13 15:00:00 15.5 4 Norte 17 Noroeste 0 -- -- 74
2019-11-13 14:00:00 15.4 5 Norte 19 Norte 0 -- -- 68
2019-11-13 13:00:00 13.9 8 Norte 19 Norte 0 -- -- 80
2019-11-13 12:00:00 14.2 8 Norte 17 Norte 0 -- -- 80
2019-11-13 11:00:00 14 5 Nordeste 14 Norte 0 -- -- 83
2019-11-13 10:00:00 12.3 3 Nordeste 23 Norte 0 -- -- 93
2019-11-13 09:00:00 12.3 8 Norte 21 Nordeste 0 -- -- 94
2019-11-13 08:00:00 11.8 0 Calma 12 Norte 0 -- -- 96
2019-11-13 07:00:00 12.9 4 Nordeste 21 Norte 0 -- -- 92
2019-11-13 06:00:00 13.5 10 Norte 25 Nordeste 0 -- -- 95
2019-11-13 05:00:00 14.4 4 Norte 20 Este 0 -- -- 100
2019-11-13 04:00:00 14.4 7 Sudeste 31 Norte 0.2 -- -- 100
2019-11-13 03:00:00 14.5 5 Este 17 Oeste 0 -- -- 100
2019-11-13 02:00:00 14.7 5 Sudeste 24 Norte 0 -- -- 100
2019-11-13 01:00:00 15 8 Sudeste 24 Noroeste 1.6 -- -- 100
2019-11-13 00:00:00 15.2 10 Sudoeste 37 Oeste 1.4 -- -- 100
2019-11-12 23:00:00 14.8 14 Sudoeste 36 Sudoeste 2.8 -- -- 100
2019-11-12 22:00:00 14.7 13 Sudoeste 38 Sudoeste 7.8 -- -- 100
2019-11-12 21:00:00 14.6 13 Sudoeste 30 Oeste 6.6 -- -- 100
2019-11-12 20:00:00 14.5 10 Sudoeste 37 Oeste 5.2 -- -- 100
2019-11-12 19:00:00 14.3 10 Sudoeste 37 Oeste 3.6 -- -- 100
2019-11-12 18:00:00 14.1 13 Sudoeste 38 Oeste 4.8 -- -- 100
2019-11-12 17:00:00 13.7 12 Sudoeste 32 Sudoeste 2.2 -- -- 100
2019-11-12 16:00:00 13.6 12 Sudoeste 30 Sudoeste 1 -- -- 100
2019-11-12 15:00:00 13 9 Sudoeste 26 Sudoeste 0.6 -- -- 99
2019-11-12 14:00:00 11.6 2 Sur 9 Sur 0.4 -- -- 100
2019-11-12 13:00:00 11.1 3 Sur 13 Sur 0.2 -- -- 99
2019-11-12 12:00:00 10.7 4 Sur 10 Sur 0.6 -- -- 100
2019-11-12 11:00:00 10 0 Calma 6 Este 0.4 -- -- 97
2019-11-12 10:00:00 9.8 3 Este 12 Este 0.2 -- -- 93
2019-11-12 09:00:00 9.6 3 Este 10 Este 0 -- -- 93
2019-11-12 08:00:00 9.5 3 Este 8 Sudeste 0 -- -- 92
2019-11-12 07:00:00 9.6 2 Nordeste 6 Este 0 -- -- 91
2019-11-12 06:00:00 9.4 0 Calma 5 Sudeste 0 -- -- 90
2019-11-12 05:00:00 9.3 3 Sudeste 5 Sudeste 0 -- -- 93
2019-11-12 04:00:00 9.1 0 Calma 6 Sudeste 0 -- -- 91
2019-11-12 03:00:00 8.9 3 Sudeste 7 Sudeste 0 -- -- 92
2019-11-12 02:00:00 9 0 Calma 6 Sudeste 0 -- -- 93
2019-11-12 01:00:00 9.3 3 Sudeste 5 Sudeste 0 -- -- 91
2019-11-12 00:00:00 9.5 3 Sudeste 6 Sur 0 -- -- 89
2019-11-11 23:00:00 9.9 2 Sur 6 Sur 0 -- -- 88
2019-11-11 22:00:00 10.2 2 Sur 7 Norte 0 -- -- 88
2019-11-11 21:00:00 10.7 0 Calma 9 Norte 0 -- -- 85
2019-11-11 20:00:00 11.6 5 Nordeste 18 Nordeste 0 -- -- 80
2019-11-11 19:00:00 12.3 9 Norte 23 Norte 0 -- -- 78
2019-11-11 18:00:00 13.2 10 Norte 22 Norte 0 -- -- 74
2019-11-11 17:00:00 13.8 12 Norte 29 Norte 0 -- -- 70
2019-11-11 16:00:00 14.4 10 Nordeste 29 Norte 0 -- -- 67
2019-11-11 15:00:00 14.7 13 Norte 26 Norte 0 -- -- 68
2019-11-11 14:00:00 14.1 15 Norte 30 Norte 0 -- -- 75
2019-11-11 13:00:00 13.9 13 Norte 32 Norte 0 -- -- 78
2019-11-11 12:00:00 13.5 13 Norte 24 Norte 0 -- -- 85
2019-11-11 11:00:00 13 13 Norte 33 Norte 0 -- -- 90
2019-11-11 10:00:00 12.4 13 Norte 26 Norte 0 -- -- 100
2019-11-11 09:00:00 12 0 Calma 8 Oeste 0.2 -- -- 100
2019-11-11 08:00:00 11.8 2 Oeste 6 Sur 0 -- -- 100
2019-11-11 07:00:00 10.9 0 Calma 5 Norte 0 -- -- 100
2019-11-11 06:00:00 10.7 3 Nordeste 7 Nordeste 0.2 -- -- 100
2019-11-11 05:00:00 10.7 2 Nordeste 6 Este 0.2 -- -- 100
2019-11-11 04:00:00 10.5 2 Nordeste 10 Este 0.2 -- -- 100
2019-11-11 03:00:00 10.3 3 Este 11 Sudeste 0 -- -- 100
2019-11-11 02:00:00 10.3 3 Este 10 Sudeste 0.2 -- -- 100
2019-11-11 01:00:00 10.1 2 Nordeste 10 Este 0 -- -- 100
2019-11-11 00:00:00 10 3 Este 12 Este 0 -- -- 100